sensor_id;sensor_type;location;lat;lon;timestamp;P1;durP1;ratioP1;P2;durP2;ratioP2
15449;SDS011;7826;49.784;9.934;2023-11-19T00:00:51;9.70;;;7.20;;
15449;SDS011;7826;49.784;9.934;2023-11-19T00:03:18;10.33;;;7.60;;
15449;SDS011;7826;49.784;9.934;2023-11-19T00:05:44;10.40;;;7.50;;
15449;SDS011;7826;49.784;9.934;2023-11-19T00:08:11;9.33;;;7.33;;
15449;SDS011;7826;49.784;9.934;2023-11-19T00:10:37;10.90;;;7.03;;
15449;SDS011;7826;49.784;9.934;2023-11-19T00:13:03;9.87;;;8.07;;
15449;SDS011;7826;49.784;9.934;2023-11-19T00:15:30;11.03;;;7.93;;
15449;SDS011;7826;49.784;9.934;2023-11-19T00:17:56;11.77;;;7.87;;
15449;SDS011;7826;49.784;9.934;2023-11-19T00:20:23;9.93;;;7.30;;
15449;SDS011;7826;49.784;9.934;2023-11-19T00:22:49;9.60;;;7.37;;
15449;SDS011;7826;49.784;9.934;2023-11-19T00:25:19;9.13;;;7.37;;
15449;SDS011;7826;49.784;9.934;2023-11-19T00:27:47;9.17;;;6.57;;
15449;SDS011;7826;49.784;9.934;2023-11-19T00:30:14;9.33;;;7.57;;
15449;SDS011;7826;49.784;9.934;2023-11-19T00:32:41;9.37;;;6.73;;
15449;SDS011;7826;49.784;9.934;2023-11-19T00:35:08;8.17;;;6.70;;
15449;SDS011;7826;49.784;9.934;2023-11-19T00:37:39;8.47;;;6.87;;
15449;SDS011;7826;49.784;9.934;2023-11-19T00:40:08;9.23;;;7.10;;
15449;SDS011;7826;49.784;9.934;2023-11-19T00:42:36;9.00;;;6.97;;
15449;SDS011;7826;49.784;9.934;2023-11-19T00:45:03;9.80;;;6.97;;
15449;SDS011;7826;49.784;9.934;2023-11-19T00:47:34;11.17;;;7.30;;
15449;SDS011;7826;49.784;9.934;2023-11-19T00:50:01;9.30;;;6.40;;
15449;SDS011;7826;49.784;9.934;2023-11-19T00:52:31;9.10;;;6.80;;
15449;SDS011;7826;49.784;9.934;2023-11-19T00:54:57;8.17;;;6.43;;
15449;SDS011;7826;49.784;9.934;2023-11-19T00:57:23;9.23;;;6.47;;
15449;SDS011;7826;49.784;9.934;2023-11-19T00:59:50;8.10;;;5.90;;
15449;SDS011;7826;49.784;9.934;2023-11-19T01:02:16;6.13;;;5.53;;
15449;SDS011;7826;49.784;9.934;2023-11-19T01:04:43;7.87;;;5.87;;
15449;SDS011;7826;49.784;9.934;2023-11-19T01:07:09;6.47;;;5.50;;
15449;SDS011;7826;49.784;9.934;2023-11-19T01:09:41;7.60;;;5.40;;
15449;SDS011;7826;49.784;9.934;2023-11-19T01:12:08;7.50;;;5.73;;
15449;SDS011;7826;49.784;9.934;2023-11-19T01:14:36;7.47;;;5.77;;
15449;SDS011;7826;49.784;9.934;2023-11-19T01:17:02;6.47;;;4.80;;
15449;SDS011;7826;49.784;9.934;2023-11-19T01:19:30;6.53;;;5.27;;
15449;SDS011;7826;49.784;9.934;2023-11-19T01:21:57;9.03;;;5.57;;
15449;SDS011;7826;49.784;9.934;2023-11-19T01:24:23;6.60;;;5.57;;
15449;SDS011;7826;49.784;9.934;2023-11-19T01:26:50;6.03;;;5.13;;
15449;SDS011;7826;49.784;9.934;2023-11-19T01:29:17;5.97;;;4.77;;
15449;SDS011;7826;49.784;9.934;2023-11-19T01:31:45;6.03;;;4.57;;
15449;SDS011;7826;49.784;9.934;2023-11-19T01:34:13;7.03;;;4.73;;
15449;SDS011;7826;49.784;9.934;2023-11-19T01:36:39;8.17;;;5.30;;
15449;SDS011;7826;49.784;9.934;2023-11-19T01:39:06;6.83;;;5.20;;
15449;SDS011;7826;49.784;9.934;2023-11-19T01:41:35;5.80;;;5.20;;
15449;SDS011;7826;49.784;9.934;2023-11-19T01:44:02;6.27;;;5.23;;
15449;SDS011;7826;49.784;9.934;2023-11-19T01:46:31;6.77;;;5.23;;
15449;SDS011;7826;49.784;9.934;2023-11-19T01:48:59;7.37;;;5.53;;
15449;SDS011;7826;49.784;9.934;2023-11-19T01:51:26;6.10;;;4.87;;
15449;SDS011;7826;49.784;9.934;2023-11-19T01:53:54;8.53;;;5.10;;
15449;SDS011;7826;49.784;9.934;2023-11-19T01:56:22;6.30;;;5.17;;
15449;SDS011;7826;49.784;9.934;2023-11-19T01:58:50;5.67;;;4.70;;
15449;SDS011;7826;49.784;9.934;2023-11-19T02:01:17;4.83;;;4.43;;
15449;SDS011;7826;49.784;9.934;2023-11-19T02:03:44;5.63;;;4.27;;
15449;SDS011;7826;49.784;9.934;2023-11-19T02:06:12;4.73;;;4.23;;
15449;SDS011;7826;49.784;9.934;2023-11-19T02:08:39;5.83;;;4.83;;
15449;SDS011;7826;49.784;9.934;2023-11-19T02:11:06;4.93;;;4.37;;
15449;SDS011;7826;49.784;9.934;2023-11-19T02:13:36;6.00;;;4.63;;
15449;SDS011;7826;49.784;9.934;2023-11-19T02:16:03;5.23;;;4.20;;
15449;SDS011;7826;49.784;9.934;2023-11-19T02:18:30;6.57;;;4.43;;
15449;SDS011;7826;49.784;9.934;2023-11-19T02:20:57;4.90;;;4.30;;
15449;SDS011;7826;49.784;9.934;2023-11-19T02:23:28;6.00;;;4.63;;
15449;SDS011;7826;49.784;9.934;2023-11-19T02:28:46;6.20;;;4.50;;
15449;SDS011;7826;49.784;9.934;2023-11-19T02:31:13;5.73;;;4.60;;
15449;SDS011;7826;49.784;9.934;2023-11-19T02:33:40;7.50;;;4.93;;
15449;SDS011;7826;49.784;9.934;2023-11-19T02:36:07;7.57;;;5.17;;
15449;SDS011;7826;49.784;9.934;2023-11-19T02:38:34;6.87;;;5.07;;
15449;SDS011;7826;49.784;9.934;2023-11-19T02:41:03;6.27;;;5.03;;
15449;SDS011;7826;49.784;9.934;2023-11-19T02:43:34;6.47;;;5.20;;
15449;SDS011;7826;49.784;9.934;2023-11-19T02:46:01;6.33;;;5.40;;
15449;SDS011;7826;49.784;9.934;2023-11-19T02:48:28;6.77;;;5.43;;
15449;SDS011;7826;49.784;9.934;2023-11-19T02:50:54;6.97;;;5.17;;
15449;SDS011;7826;49.784;9.934;2023-11-19T02:53:24;6.77;;;5.50;;
15449;SDS011;7826;49.784;9.934;2023-11-19T02:55:53;6.50;;;5.23;;
15449;SDS011;7826;49.784;9.934;2023-11-19T02:58:27;7.90;;;5.80;;
15449;SDS011;7826;49.784;9.934;2023-11-19T03:00:55;8.80;;;6.03;;
15449;SDS011;7826;49.784;9.934;2023-11-19T03:03:25;8.57;;;5.60;;
15449;SDS011;7826;49.784;9.934;2023-11-19T03:06:07;8.03;;;5.70;;
15449;SDS011;7826;49.784;9.934;2023-11-19T03:08:35;9.57;;;6.20;;
15449;SDS011;7826;49.784;9.934;2023-11-19T03:11:02;8.50;;;6.27;;
15449;SDS011;7826;49.784;9.934;2023-11-19T03:13:30;7.50;;;5.83;;
15449;SDS011;7826;49.784;9.934;2023-11-19T03:15:57;11.03;;;6.47;;
15449;SDS011;7826;49.784;9.934;2023-11-19T03:18:23;10.33;;;7.17;;
15449;SDS011;7826;49.784;9.934;2023-11-19T03:20:49;10.77;;;6.53;;
15449;SDS011;7826;49.784;9.934;2023-11-19T03:23:16;8.53;;;6.57;;
15449;SDS011;7826;49.784;9.934;2023-11-19T03:25:42;10.00;;;6.67;;
15449;SDS011;7826;49.784;9.934;2023-11-19T03:28:09;11.70;;;7.40;;
15449;SDS011;7826;49.784;9.934;2023-11-19T03:30:37;9.67;;;7.07;;
15449;SDS011;7826;49.784;9.934;2023-11-19T03:33:04;9.90;;;7.40;;
15449;SDS011;7826;49.784;9.934;2023-11-19T03:35:30;11.00;;;7.40;;
15449;SDS011;7826;49.784;9.934;2023-11-19T03:37:57;11.60;;;8.13;;
15449;SDS011;7826;49.784;9.934;2023-11-19T03:40:23;10.40;;;7.33;;
15449;SDS011;7826;49.784;9.934;2023-11-19T03:42:50;10.90;;;6.93;;
15449;SDS011;7826;49.784;9.934;2023-11-19T03:45:17;12.73;;;7.60;;
15449;SDS011;7826;49.784;9.934;2023-11-19T03:47:43;10.80;;;8.10;;
15449;SDS011;7826;49.784;9.934;2023-11-19T03:50:10;10.40;;;7.77;;
15449;SDS011;7826;49.784;9.934;2023-11-19T03:52:36;11.43;;;7.27;;
15449;SDS011;7826;49.784;9.934;2023-11-19T03:55:03;14.83;;;8.80;;
15449;SDS011;7826;49.784;9.934;2023-11-19T03:57:31;12.60;;;8.40;;
15449;SDS011;7826;49.784;9.934;2023-11-19T03:59:58;11.13;;;7.90;;
15449;SDS011;7826;49.784;9.934;2023-11-19T04:02:24;12.60;;;8.37;;
15449;SDS011;7826;49.784;9.934;2023-11-19T04:04:54;13.33;;;7.97;;
15449;SDS011;7826;49.784;9.934;2023-11-19T04:07:21;10.67;;;7.70;;
15449;SDS011;7826;49.784;9.934;2023-11-19T04:09:47;11.57;;;8.03;;
15449;SDS011;7826;49.784;9.934;2023-11-19T04:12:14;13.57;;;8.60;;
15449;SDS011;7826;49.784;9.934;2023-11-19T04:14:41;14.77;;;9.07;;
15449;SDS011;7826;49.784;9.934;2023-11-19T04:17:07;11.87;;;8.40;;
15449;SDS011;7826;49.784;9.934;2023-11-19T04:19:34;10.27;;;7.70;;
15449;SDS011;7826;49.784;9.934;2023-11-19T04:22:01;12.33;;;8.40;;
15449;SDS011;7826;49.784;9.934;2023-11-19T04:24:28;12.80;;;8.97;;
15449;SDS011;7826;49.784;9.934;2023-11-19T04:26:54;15.67;;;9.00;;
15449;SDS011;7826;49.784;9.934;2023-11-19T04:29:20;14.57;;;8.67;;
15449;SDS011;7826;49.784;9.934;2023-11-19T04:31:47;10.93;;;7.93;;
15449;SDS011;7826;49.784;9.934;2023-11-19T04:34:14;12.33;;;8.60;;
15449;SDS011;7826;49.784;9.934;2023-11-19T04:36:41;13.50;;;8.43;;
15449;SDS011;7826;49.784;9.934;2023-11-19T04:39:07;12.00;;;8.30;;
15449;SDS011;7826;49.784;9.934;2023-11-19T04:44:15;12.13;;;8.17;;
15449;SDS011;7826;49.784;9.934;2023-11-19T04:46:42;12.37;;;8.97;;
15449;SDS011;7826;49.784;9.934;2023-11-19T04:49:10;14.87;;;9.10;;
15449;SDS011;7826;49.784;9.934;2023-11-19T04:54:08;16.27;;;8.93;;
15449;SDS011;7826;49.784;9.934;2023-11-19T04:56:38;12.40;;;7.67;;
15449;SDS011;7826;49.784;9.934;2023-11-19T04:59:06;14.20;;;8.17;;
15449;SDS011;7826;49.784;9.934;2023-11-19T05:01:33;13.97;;;8.87;;
15449;SDS011;7826;49.784;9.934;2023-11-19T05:04:00;13.53;;;8.53;;
15449;SDS011;7826;49.784;9.934;2023-11-19T05:06:30;13.93;;;8.27;;
15449;SDS011;7826;49.784;9.934;2023-11-19T05:08:58;14.13;;;8.67;;
15449;SDS011;7826;49.784;9.934;2023-11-19T05:11:36;12.80;;;8.33;;
15449;SDS011;7826;49.784;9.934;2023-11-19T05:14:05;12.90;;;8.33;;
15449;SDS011;7826;49.784;9.934;2023-11-19T05:16:31;10.70;;;7.83;;
15449;SDS011;7826;49.784;9.934;2023-11-19T05:18:58;14.47;;;9.20;;
15449;SDS011;7826;49.784;9.934;2023-11-19T05:21:24;13.43;;;8.20;;
15449;SDS011;7826;49.784;9.934;2023-11-19T05:23:51;13.23;;;8.93;;
15449;SDS011;7826;49.784;9.934;2023-11-19T05:26:21;13.90;;;8.30;;
15449;SDS011;7826;49.784;9.934;2023-11-19T05:28:50;12.37;;;8.67;;
15449;SDS011;7826;49.784;9.934;2023-11-19T05:31:17;14.90;;;8.50;;
15449;SDS011;7826;49.784;9.934;2023-11-19T05:33:44;12.87;;;8.17;;
15449;SDS011;7826;49.784;9.934;2023-11-19T05:36:10;14.87;;;8.90;;
15449;SDS011;7826;49.784;9.934;2023-11-19T05:38:39;11.83;;;8.43;;
15449;SDS011;7826;49.784;9.934;2023-11-19T05:41:06;12.17;;;8.53;;
15449;SDS011;7826;49.784;9.934;2023-11-19T05:43:32;13.43;;;8.17;;
15449;SDS011;7826;49.784;9.934;2023-11-19T05:45:59;13.87;;;8.77;;
15449;SDS011;7826;49.784;9.934;2023-11-19T05:48:27;10.90;;;7.97;;
15449;SDS011;7826;49.784;9.934;2023-11-19T05:50:54;13.03;;;8.47;;
15449;SDS011;7826;49.784;9.934;2023-11-19T05:53:21;13.93;;;8.23;;
15449;SDS011;7826;49.784;9.934;2023-11-19T05:55:47;14.57;;;8.83;;
15449;SDS011;7826;49.784;9.934;2023-11-19T05:58:23;14.43;;;8.90;;
15449;SDS011;7826;49.784;9.934;2023-11-19T06:00:52;14.00;;;8.60;;
15449;SDS011;7826;49.784;9.934;2023-11-19T06:03:19;14.27;;;9.47;;
15449;SDS011;7826;49.784;9.934;2023-11-19T06:05:47;14.10;;;8.83;;
15449;SDS011;7826;49.784;9.934;2023-11-19T06:08:15;17.00;;;9.03;;
15449;SDS011;7826;49.784;9.934;2023-11-19T06:10:42;15.33;;;9.40;;
15449;SDS011;7826;49.784;9.934;2023-11-19T06:13:15;13.40;;;9.23;;
15449;SDS011;7826;49.784;9.934;2023-11-19T06:15:41;17.30;;;10.83;;
15449;SDS011;7826;49.784;9.934;2023-11-19T06:18:08;16.00;;;9.90;;
15449;SDS011;7826;49.784;9.934;2023-11-19T06:20:37;14.87;;;9.80;;
15449;SDS011;7826;49.784;9.934;2023-11-19T06:23:04;15.00;;;9.33;;
15449;SDS011;7826;49.784;9.934;2023-11-19T06:25:31;12.73;;;8.47;;
15449;SDS011;7826;49.784;9.934;2023-11-19T06:27:58;13.30;;;9.20;;
15449;SDS011;7826;49.784;9.934;2023-11-19T06:30:25;12.07;;;8.47;;
15449;SDS011;7826;49.784;9.934;2023-11-19T06:32:54;13.10;;;8.20;;
15449;SDS011;7826;49.784;9.934;2023-11-19T06:35:20;10.93;;;8.10;;
15449;SDS011;7826;49.784;9.934;2023-11-19T06:37:47;12.83;;;7.63;;
15449;SDS011;7826;49.784;9.934;2023-11-19T06:40:15;13.60;;;7.40;;
15449;SDS011;7826;49.784;9.934;2023-11-19T06:42:42;11.23;;;7.87;;
15449;SDS011;7826;49.784;9.934;2023-11-19T06:45:09;12.27;;;7.60;;
15449;SDS011;7826;49.784;9.934;2023-11-19T06:47:35;11.53;;;7.33;;
15449;SDS011;7826;49.784;9.934;2023-11-19T06:50:02;10.77;;;6.97;;
15449;SDS011;7826;49.784;9.934;2023-11-19T06:52:31;10.03;;;7.47;;
15449;SDS011;7826;49.784;9.934;2023-11-19T06:54:58;9.63;;;7.30;;
15449;SDS011;7826;49.784;9.934;2023-11-19T06:57:24;12.63;;;7.53;;
15449;SDS011;7826;49.784;9.934;2023-11-19T06:59:51;10.50;;;7.43;;
15449;SDS011;7826;49.784;9.934;2023-11-19T07:02:18;11.30;;;7.77;;
15449;SDS011;7826;49.784;9.934;2023-11-19T07:04:45;13.83;;;7.80;;
15449;SDS011;7826;49.784;9.934;2023-11-19T07:07:11;13.30;;;7.50;;
15449;SDS011;7826;49.784;9.934;2023-11-19T07:09:38;10.67;;;7.37;;
15449;SDS011;7826;49.784;9.934;2023-11-19T07:12:05;10.57;;;7.57;;
15449;SDS011;7826;49.784;9.934;2023-11-19T07:14:32;10.70;;;7.43;;
15449;SDS011;7826;49.784;9.934;2023-11-19T07:16:59;8.60;;;6.57;;
15449;SDS011;7826;49.784;9.934;2023-11-19T07:19:26;9.67;;;6.80;;
15449;SDS011;7826;49.784;9.934;2023-11-19T07:21:53;11.00;;;6.90;;
15449;SDS011;7826;49.784;9.934;2023-11-19T07:24:20;10.30;;;6.83;;
15449;SDS011;7826;49.784;9.934;2023-11-19T07:26:47;7.70;;;6.17;;
15449;SDS011;7826;49.784;9.934;2023-11-19T07:29:14;7.10;;;5.80;;
15449;SDS011;7826;49.784;9.934;2023-11-19T07:31:42;7.87;;;6.27;;
15449;SDS011;7826;49.784;9.934;2023-11-19T07:34:10;8.10;;;6.13;;
15449;SDS011;7826;49.784;9.934;2023-11-19T07:36:37;7.17;;;5.70;;
15449;SDS011;7826;49.784;9.934;2023-11-19T07:39:04;10.90;;;7.50;;
15449;SDS011;7826;49.784;9.934;2023-11-19T07:41:31;7.23;;;5.60;;
15449;SDS011;7826;49.784;9.934;2023-11-19T07:43:57;7.40;;;5.90;;
15449;SDS011;7826;49.784;9.934;2023-11-19T07:46:24;6.87;;;5.80;;
15449;SDS011;7826;49.784;9.934;2023-11-19T07:48:51;7.43;;;5.10;;
15449;SDS011;7826;49.784;9.934;2023-11-19T07:51:18;7.07;;;5.60;;
15449;SDS011;7826;49.784;9.934;2023-11-19T07:53:45;7.60;;;5.83;;
15449;SDS011;7826;49.784;9.934;2023-11-19T07:56:11;7.97;;;6.23;;
15449;SDS011;7826;49.784;9.934;2023-11-19T07:58:38;6.30;;;4.87;;
15449;SDS011;7826;49.784;9.934;2023-11-19T08:01:05;6.80;;;5.17;;
15449;SDS011;7826;49.784;9.934;2023-11-19T08:03:32;5.80;;;5.20;;
15449;SDS011;7826;49.784;9.934;2023-11-19T08:06:03;8.10;;;5.23;;
15449;SDS011;7826;49.784;9.934;2023-11-19T08:08:34;6.40;;;4.80;;
15449;SDS011;7826;49.784;9.934;2023-11-19T08:11:00;5.97;;;4.53;;
15449;SDS011;7826;49.784;9.934;2023-11-19T08:13:27;5.80;;;4.77;;
15449;SDS011;7826;49.784;9.934;2023-11-19T08:15:54;6.23;;;4.50;;
15449;SDS011;7826;49.784;9.934;2023-11-19T08:18:21;5.50;;;4.40;;
15449;SDS011;7826;49.784;9.934;2023-11-19T08:20:47;6.27;;;4.50;;
15449;SDS011;7826;49.784;9.934;2023-11-19T08:23:19;4.97;;;4.20;;
15449;SDS011;7826;49.784;9.934;2023-11-19T08:25:46;5.00;;;4.10;;
15449;SDS011;7826;49.784;9.934;2023-11-19T08:28:13;4.33;;;3.93;;
15449;SDS011;7826;49.784;9.934;2023-11-19T08:30:39;4.43;;;4.03;;
15449;SDS011;7826;49.784;9.934;2023-11-19T08:33:06;4.63;;;4.13;;
15449;SDS011;7826;49.784;9.934;2023-11-19T08:35:33;5.33;;;4.07;;
15449;SDS011;7826;49.784;9.934;2023-11-19T08:38:00;4.13;;;3.73;;
15449;SDS011;7826;49.784;9.934;2023-11-19T08:40:27;3.90;;;3.60;;
15449;SDS011;7826;49.784;9.934;2023-11-19T08:42:55;4.77;;;3.70;;
15449;SDS011;7826;49.784;9.934;2023-11-19T08:45:22;3.97;;;3.13;;
15449;SDS011;7826;49.784;9.934;2023-11-19T08:47:49;3.50;;;3.20;;
15449;SDS011;7826;49.784;9.934;2023-11-19T08:50:16;4.77;;;3.00;;
15449;SDS011;7826;49.784;9.934;2023-11-19T08:52:43;3.47;;;3.17;;
15449;SDS011;7826;49.784;9.934;2023-11-19T08:55:10;3.63;;;3.33;;
15449;SDS011;7826;49.784;9.934;2023-11-19T08:57:37;5.03;;;3.03;;
15449;SDS011;7826;49.784;9.934;2023-11-19T09:00:04;4.87;;;2.70;;
15449;SDS011;7826;49.784;9.934;2023-11-19T09:02:34;3.97;;;2.70;;
15449;SDS011;7826;49.784;9.934;2023-11-19T09:05:04;3.07;;;2.70;;
15449;SDS011;7826;49.784;9.934;2023-11-19T09:07:31;4.30;;;2.53;;
15449;SDS011;7826;49.784;9.934;2023-11-19T09:09:58;3.07;;;2.70;;
15449;SDS011;7826;49.784;9.934;2023-11-19T09:12:27;3.03;;;2.70;;
15449;SDS011;7826;49.784;9.934;2023-11-19T09:15:09;4.97;;;2.43;;
15449;SDS011;7826;49.784;9.934;2023-11-19T09:17:36;4.70;;;2.73;;
15449;SDS011;7826;49.784;9.934;2023-11-19T09:20:05;2.13;;;1.93;;
15449;SDS011;7826;49.784;9.934;2023-11-19T09:22:34;5.33;;;2.30;;
15449;SDS011;7826;49.784;9.934;2023-11-19T09:25:01;3.00;;;2.20;;
15449;SDS011;7826;49.784;9.934;2023-11-19T09:27:28;2.93;;;2.20;;
15449;SDS011;7826;49.784;9.934;2023-11-19T09:29:54;4.17;;;2.43;;
15449;SDS011;7826;49.784;9.934;2023-11-19T09:32:29;2.87;;;1.87;;
15449;SDS011;7826;49.784;9.934;2023-11-19T09:34:57;2.33;;;1.77;;
15449;SDS011;7826;49.784;9.934;2023-11-19T09:37:24;2.50;;;1.80;;
15449;SDS011;7826;49.784;9.934;2023-11-19T09:39:50;8.20;;;2.10;;
15449;SDS011;7826;49.784;9.934;2023-11-19T09:42:17;2.27;;;1.80;;
15449;SDS011;7826;49.784;9.934;2023-11-19T09:44:44;4.07;;;1.70;;
15449;SDS011;7826;49.784;9.934;2023-11-19T09:47:12;4.23;;;2.70;;
15449;SDS011;7826;49.784;9.934;2023-11-19T09:49:41;3.50;;;2.23;;
15449;SDS011;7826;49.784;9.934;2023-11-19T09:52:07;2.03;;;1.70;;
15449;SDS011;7826;49.784;9.934;2023-11-19T09:54:34;4.80;;;2.30;;
15449;SDS011;7826;49.784;9.934;2023-11-19T09:57:02;2.63;;;2.23;;
15449;SDS011;7826;49.784;9.934;2023-11-19T09:59:30;3.13;;;2.20;;
15449;SDS011;7826;49.784;9.934;2023-11-19T10:01:57;4.60;;;2.50;;
15449;SDS011;7826;49.784;9.934;2023-11-19T10:04:26;5.73;;;2.40;;
15449;SDS011;7826;49.784;9.934;2023-11-19T10:06:56;6.47;;;2.40;;
15449;SDS011;7826;49.784;9.934;2023-11-19T10:09:28;6.43;;;2.40;;
15449;SDS011;7826;49.784;9.934;2023-11-19T10:11:54;5.87;;;2.83;;
15449;SDS011;7826;49.784;9.934;2023-11-19T10:14:22;3.90;;;2.43;;
15449;SDS011;7826;49.784;9.934;2023-11-19T10:16:50;6.87;;;2.60;;
15449;SDS011;7826;49.784;9.934;2023-11-19T10:19:26;5.23;;;3.07;;
15449;SDS011;7826;49.784;9.934;2023-11-19T10:21:54;3.50;;;2.17;;
15449;SDS011;7826;49.784;9.934;2023-11-19T10:24:33;7.20;;;3.10;;
15449;SDS011;7826;49.784;9.934;2023-11-19T10:27:00;6.23;;;2.70;;
15449;SDS011;7826;49.784;9.934;2023-11-19T10:29:37;11.80;;;3.30;;
15449;SDS011;7826;49.784;9.934;2023-11-19T10:32:04;10.57;;;2.90;;
15449;SDS011;7826;49.784;9.934;2023-11-19T10:34:31;4.57;;;2.53;;
15449;SDS011;7826;49.784;9.934;2023-11-19T10:36:59;7.73;;;2.93;;
15449;SDS011;7826;49.784;9.934;2023-11-19T10:40:13;4.40;;;2.33;;
15449;SDS011;7826;49.784;9.934;2023-11-19T10:42:22;6.90;;;3.20;;
15449;SDS011;7826;49.784;9.934;2023-11-19T10:45:29;8.57;;;2.80;;
15449;SDS011;7826;49.784;9.934;2023-11-19T10:48:00;9.13;;;3.63;;
15449;SDS011;7826;49.784;9.934;2023-11-19T10:50:29;9.00;;;3.40;;
15449;SDS011;7826;49.784;9.934;2023-11-19T10:52:57;10.50;;;3.60;;
15449;SDS011;7826;49.784;9.934;2023-11-19T10:55:46;11.63;;;4.20;;
15449;SDS011;7826;49.784;9.934;2023-11-19T10:58:28;9.47;;;3.53;;
15449;SDS011;7826;49.784;9.934;2023-11-19T11:01:02;10.77;;;3.47;;
15449;SDS011;7826;49.784;9.934;2023-11-19T11:03:39;11.53;;;3.90;;
15449;SDS011;7826;49.784;9.934;2023-11-19T11:06:17;7.80;;;3.60;;
15449;SDS011;7826;49.784;9.934;2023-11-19T11:08:44;7.00;;;3.43;;
15449;SDS011;7826;49.784;9.934;2023-11-19T11:11:13;9.53;;;3.57;;
15449;SDS011;7826;49.784;9.934;2023-11-19T11:13:49;8.00;;;2.70;;
15449;SDS011;7826;49.784;9.934;2023-11-19T11:16:31;8.47;;;2.87;;
15449;SDS011;7826;49.784;9.934;2023-11-19T11:19:08;8.23;;;3.00;;
15449;SDS011;7826;49.784;9.934;2023-11-19T11:21:37;11.57;;;2.83;;
15449;SDS011;7826;49.784;9.934;2023-11-19T11:24:10;9.50;;;3.00;;
15449;SDS011;7826;49.784;9.934;2023-11-19T11:30:08;10.40;;;3.30;;
15449;SDS011;7826;49.784;9.934;2023-11-19T11:32:51;8.83;;;3.30;;
15449;SDS011;7826;49.784;9.934;2023-11-19T11:35:33;4.57;;;2.50;;
15449;SDS011;7826;49.784;9.934;2023-11-19T11:38:31;9.17;;;3.57;;
15449;SDS011;7826;49.784;9.934;2023-11-19T11:41:16;11.43;;;3.50;;
15449;SDS011;7826;49.784;9.934;2023-11-19T11:43:48;11.93;;;4.37;;
15449;SDS011;7826;49.784;9.934;2023-11-19T11:49:05;8.90;;;3.10;;
15449;SDS011;7826;49.784;9.934;2023-11-19T11:54:25;10.97;;;3.87;;
15449;SDS011;7826;49.784;9.934;2023-11-19T11:57:03;11.80;;;4.20;;
15449;SDS011;7826;49.784;9.934;2023-11-19T12:02:11;11.10;;;3.90;;
15449;SDS011;7826;49.784;9.934;2023-11-19T12:04:42;10.90;;;3.63;;
15449;SDS011;7826;49.784;9.934;2023-11-19T12:07:16;11.23;;;4.10;;
15449;SDS011;7826;49.784;9.934;2023-11-19T12:09:50;11.50;;;4.03;;
15449;SDS011;7826;49.784;9.934;2023-11-19T12:12:38;8.30;;;4.20;;
15449;SDS011;7826;49.784;9.934;2023-11-19T12:15:07;16.23;;;4.53;;
15449;SDS011;7826;49.784;9.934;2023-11-19T12:17:42;13.03;;;4.40;;
15449;SDS011;7826;49.784;9.934;2023-11-19T12:20:16;12.37;;;3.80;;
15449;SDS011;7826;49.784;9.934;2023-11-19T12:22:46;12.20;;;4.63;;
15449;SDS011;7826;49.784;9.934;2023-11-19T12:25:16;15.90;;;4.60;;
15449;SDS011;7826;49.784;9.934;2023-11-19T12:27:45;14.63;;;4.63;;
15449;SDS011;7826;49.784;9.934;2023-11-19T12:30:50;15.60;;;6.33;;
15449;SDS011;7826;49.784;9.934;2023-11-19T12:33:17;11.37;;;4.60;;
15449;SDS011;7826;49.784;9.934;2023-11-19T12:35:48;17.37;;;5.00;;
15449;SDS011;7826;49.784;9.934;2023-11-19T12:38:18;16.43;;;4.60;;
15449;SDS011;7826;49.784;9.934;2023-11-19T12:41:19;16.73;;;4.77;;
15449;SDS011;7826;49.784;9.934;2023-11-19T12:44:11;17.30;;;5.20;;
15449;SDS011;7826;49.784;9.934;2023-11-19T12:46:39;20.73;;;6.00;;
15449;SDS011;7826;49.784;9.934;2023-11-19T12:49:06;55.83;;;23.87;;
15449;SDS011;7826;49.784;9.934;2023-11-19T12:52:00;30.33;;;10.73;;
15449;SDS011;7826;49.784;9.934;2023-11-19T12:54:51;43.23;;;19.40;;
15449;SDS011;7826;49.784;9.934;2023-11-19T12:57:40;34.60;;;12.40;;
15449;SDS011;7826;49.784;9.934;2023-11-19T13:00:17;27.50;;;9.43;;
15449;SDS011;7826;49.784;9.934;2023-11-19T13:02:51;19.63;;;4.80;;
15449;SDS011;7826;49.784;9.934;2023-11-19T13:10:54;16.27;;;5.43;;
15449;SDS011;7826;49.784;9.934;2023-11-19T13:13:21;17.37;;;6.10;;
15449;SDS011;7826;49.784;9.934;2023-11-19T13:16:21;21.00;;;7.77;;
15449;SDS011;7826;49.784;9.934;2023-11-19T13:18:48;17.80;;;5.53;;
15449;SDS011;7826;49.784;9.934;2023-11-19T13:21:14;17.27;;;5.23;;
15449;SDS011;7826;49.784;9.934;2023-11-19T13:23:41;19.43;;;6.20;;
15449;SDS011;7826;49.784;9.934;2023-11-19T13:26:09;15.93;;;5.80;;
15449;SDS011;7826;49.784;9.934;2023-11-19T13:28:45;13.50;;;4.90;;
15449;SDS011;7826;49.784;9.934;2023-11-19T13:31:12;14.53;;;5.47;;
15449;SDS011;7826;49.784;9.934;2023-11-19T13:33:39;18.63;;;5.13;;
15449;SDS011;7826;49.784;9.934;2023-11-19T13:36:41;21.63;;;5.20;;
15449;SDS011;7826;49.784;9.934;2023-11-19T13:39:10;13.30;;;4.53;;
15449;SDS011;7826;49.784;9.934;2023-11-19T13:41:39;19.90;;;4.90;;
15449;SDS011;7826;49.784;9.934;2023-11-19T13:44:14;19.43;;;5.13;;
15449;SDS011;7826;49.784;9.934;2023-11-19T13:46:43;19.13;;;5.10;;
15449;SDS011;7826;49.784;9.934;2023-11-19T13:49:14;20.37;;;6.10;;
15449;SDS011;7826;49.784;9.934;2023-11-19T13:51:42;16.90;;;4.87;;
15449;SDS011;7826;49.784;9.934;2023-11-19T13:54:11;18.93;;;4.73;;
15449;SDS011;7826;49.784;9.934;2023-11-19T13:56:42;16.33;;;4.30;;
15449;SDS011;7826;49.784;9.934;2023-11-19T13:59:10;18.40;;;4.70;;
15449;SDS011;7826;49.784;9.934;2023-11-19T14:01:37;14.37;;;4.30;;
15449;SDS011;7826;49.784;9.934;2023-11-19T14:04:04;20.73;;;8.87;;
15449;SDS011;7826;49.784;9.934;2023-11-19T14:06:34;21.97;;;7.93;;
15449;SDS011;7826;49.784;9.934;2023-11-19T14:09:01;16.10;;;4.70;;
15449;SDS011;7826;49.784;9.934;2023-11-19T14:11:29;15.80;;;5.10;;
15449;SDS011;7826;49.784;9.934;2023-11-19T14:13:58;15.90;;;5.07;;
15449;SDS011;7826;49.784;9.934;2023-11-19T14:16:26;20.00;;;5.60;;
15449;SDS011;7826;49.784;9.934;2023-11-19T14:19:00;12.83;;;4.67;;
15449;SDS011;7826;49.784;9.934;2023-11-19T14:21:26;13.97;;;4.23;;
15449;SDS011;7826;49.784;9.934;2023-11-19T14:23:54;20.87;;;4.80;;
15449;SDS011;7826;49.784;9.934;2023-11-19T14:26:20;19.40;;;4.83;;
15449;SDS011;7826;49.784;9.934;2023-11-19T14:28:52;19.03;;;5.17;;
15449;SDS011;7826;49.784;9.934;2023-11-19T14:31:18;15.20;;;4.57;;
15449;SDS011;7826;49.784;9.934;2023-11-19T14:33:45;21.73;;;5.60;;
15449;SDS011;7826;49.784;9.934;2023-11-19T14:36:12;18.60;;;4.90;;
15449;SDS011;7826;49.784;9.934;2023-11-19T14:38:38;16.63;;;4.40;;
15449;SDS011;7826;49.784;9.934;2023-11-19T14:41:05;14.23;;;4.47;;
15449;SDS011;7826;49.784;9.934;2023-11-19T14:43:32;21.10;;;4.37;;
15449;SDS011;7826;49.784;9.934;2023-11-19T14:45:59;15.90;;;4.00;;
15449;SDS011;7826;49.784;9.934;2023-11-19T14:48:29;18.83;;;4.83;;
15449;SDS011;7826;49.784;9.934;2023-11-19T14:50:55;15.40;;;4.53;;
15449;SDS011;7826;49.784;9.934;2023-11-19T14:53:22;17.50;;;4.03;;
15449;SDS011;7826;49.784;9.934;2023-11-19T14:55:49;16.87;;;4.83;;
15449;SDS011;7826;49.784;9.934;2023-11-19T14:58:16;11.73;;;4.40;;
15449;SDS011;7826;49.784;9.934;2023-11-19T15:00:43;19.33;;;4.67;;
15449;SDS011;7826;49.784;9.934;2023-11-19T15:03:10;15.70;;;4.17;;
15449;SDS011;7826;49.784;9.934;2023-11-19T15:05:38;19.33;;;4.30;;
15449;SDS011;7826;49.784;9.934;2023-11-19T15:08:04;11.27;;;4.10;;
15449;SDS011;7826;49.784;9.934;2023-11-19T15:10:31;18.40;;;4.50;;
15449;SDS011;7826;49.784;9.934;2023-11-19T15:13:00;20.00;;;4.80;;
15449;SDS011;7826;49.784;9.934;2023-11-19T15:15:28;15.37;;;3.90;;
15449;SDS011;7826;49.784;9.934;2023-11-19T15:17:56;22.20;;;4.73;;
15449;SDS011;7826;49.784;9.934;2023-11-19T15:20:22;13.53;;;5.03;;
15449;SDS011;7826;49.784;9.934;2023-11-19T15:22:49;16.93;;;4.90;;
15449;SDS011;7826;49.784;9.934;2023-11-19T15:25:19;16.43;;;4.30;;
15449;SDS011;7826;49.784;9.934;2023-11-19T15:27:46;15.83;;;4.23;;
15449;SDS011;7826;49.784;9.934;2023-11-19T15:30:13;16.03;;;4.47;;